sensor_id;sensor_type;location;lat;lon;timestamp;P1;durP1;ratioP1;P2;durP2;ratioP2
39340;SDS011;25059;52.132;21.062;2023-05-10T00:00:46;0.20;;;0.20;;
39340;SDS011;25059;52.132;21.062;2023-05-10T00:03:31;0.20;;;0.20;;
39340;SDS011;25059;52.132;21.062;2023-05-10T00:06:16;0.20;;;0.20;;
39340;SDS011;25059;52.132;21.062;2023-05-10T00:09:00;0.20;;;0.20;;
39340;SDS011;25059;52.132;21.062;2023-05-10T00:11:45;0.20;;;0.20;;
39340;SDS011;25059;52.132;21.062;2023-05-10T00:14:29;0.20;;;0.20;;
39340;SDS011;25059;52.132;21.062;2023-05-10T00:17:14;0.10;;;0.10;;
39340;SDS011;25059;52.132;21.062;2023-05-10T00:19:58;0.20;;;0.20;;
39340;SDS011;25059;52.132;21.062;2023-05-10T00:22:43;0.20;;;0.20;;
39340;SDS011;25059;52.132;21.062;2023-05-10T00:25:28;0.10;;;0.10;;
39340;SDS011;25059;52.132;21.062;2023-05-10T00:28:12;0.10;;;0.10;;
39340;SDS011;25059;52.132;21.062;2023-05-10T00:30:57;0.20;;;0.20;;
39340;SDS011;25059;52.132;21.062;2023-05-10T00:33:42;0.20;;;0.20;;
39340;SDS011;25059;52.132;21.062;2023-05-10T00:36:26;0.20;;;0.20;;
39340;SDS011;25059;52.132;21.062;2023-05-10T00:39:12;0.20;;;0.20;;
39340;SDS011;25059;52.132;21.062;2023-05-10T00:41:56;0.20;;;0.20;;
39340;SDS011;25059;52.132;21.062;2023-05-10T00:44:41;0.20;;;0.20;;
39340;SDS011;25059;52.132;21.062;2023-05-10T00:47:25;0.20;;;0.20;;
39340;SDS011;25059;52.132;21.062;2023-05-10T00:50:10;0.10;;;0.10;;
39340;SDS011;25059;52.132;21.062;2023-05-10T00:52:55;0.20;;;0.20;;
39340;SDS011;25059;52.132;21.062;2023-05-10T00:55:39;0.20;;;0.20;;
39340;SDS011;25059;52.132;21.062;2023-05-10T00:58:24;0.10;;;0.10;;
39340;SDS011;25059;52.132;21.062;2023-05-10T01:01:12;0.20;;;0.20;;
39340;SDS011;25059;52.132;21.062;2023-05-10T01:03:57;0.20;;;0.20;;
39340;SDS011;25059;52.132;21.062;2023-05-10T01:06:42;0.20;;;0.20;;
39340;SDS011;25059;52.132;21.062;2023-05-10T01:09:26;0.20;;;0.20;;
39340;SDS011;25059;52.132;21.062;2023-05-10T01:12:11;0.17;;;0.17;;
39340;SDS011;25059;52.132;21.062;2023-05-10T01:14:56;0.20;;;0.20;;
39340;SDS011;25059;52.132;21.062;2023-05-10T01:17:42;0.20;;;0.20;;
39340;SDS011;25059;52.132;21.062;2023-05-10T01:20:32;0.20;;;0.20;;
39340;SDS011;25059;52.132;21.062;2023-05-10T01:26:44;0.20;;;0.20;;
39340;SDS011;25059;52.132;21.062;2023-05-10T01:29:59;0.20;;;0.20;;
39340;SDS011;25059;52.132;21.062;2023-05-10T01:44:55;0.20;;;0.20;;
39340;SDS011;25059;52.132;21.062;2023-05-10T01:47:42;0.28;;;0.28;;
39340;SDS011;25059;52.132;21.062;2023-05-10T01:50:29;0.10;;;0.10;;
39340;SDS011;25059;52.132;21.062;2023-05-10T01:53:17;0.20;;;0.20;;
39340;SDS011;25059;52.132;21.062;2023-05-10T01:56:04;0.10;;;0.10;;
39340;SDS011;25059;52.132;21.062;2023-05-10T01:58:49;0.20;;;0.20;;
39340;SDS011;25059;52.132;21.062;2023-05-10T02:01:36;0.30;;;0.30;;
39340;SDS011;25059;52.132;21.062;2023-05-10T02:04:22;0.10;;;0.10;;
39340;SDS011;25059;52.132;21.062;2023-05-10T02:07:09;0.20;;;0.20;;
39340;SDS011;25059;52.132;21.062;2023-05-10T02:09:54;0.30;;;0.30;;
39340;SDS011;25059;52.132;21.062;2023-05-10T02:12:41;0.20;;;0.20;;
39340;SDS011;25059;52.132;21.062;2023-05-10T02:15:27;0.30;;;0.30;;
39340;SDS011;25059;52.132;21.062;2023-05-10T02:18:13;0.20;;;0.20;;
39340;SDS011;25059;52.132;21.062;2023-05-10T02:24:31;0.20;;;0.20;;
39340;SDS011;25059;52.132;21.062;2023-05-10T02:27:18;0.20;;;0.20;;
39340;SDS011;25059;52.132;21.062;2023-05-10T02:30:04;0.17;;;0.17;;
39340;SDS011;25059;52.132;21.062;2023-05-10T02:32:51;0.30;;;0.30;;
39340;SDS011;25059;52.132;21.062;2023-05-10T02:35:36;0.20;;;0.20;;
39340;SDS011;25059;52.132;21.062;2023-05-10T02:38:22;0.20;;;0.20;;
39340;SDS011;25059;52.132;21.062;2023-05-10T02:41:09;0.20;;;0.20;;
39340;SDS011;25059;52.132;21.062;2023-05-10T02:43:56;0.20;;;0.20;;
39340;SDS011;25059;52.132;21.062;2023-05-10T02:46:43;0.17;;;0.17;;
39340;SDS011;25059;52.132;21.062;2023-05-10T02:49:28;0.10;;;0.10;;
39340;SDS011;25059;52.132;21.062;2023-05-10T02:52:12;0.20;;;0.20;;
39340;SDS011;25059;52.132;21.062;2023-05-10T02:55:02;0.20;;;0.20;;
39340;SDS011;25059;52.132;21.062;2023-05-10T02:57:51;0.20;;;0.20;;
39340;SDS011;25059;52.132;21.062;2023-05-10T03:00:38;0.20;;;0.20;;
39340;SDS011;25059;52.132;21.062;2023-05-10T03:03:23;0.20;;;0.20;;
39340;SDS011;25059;52.132;21.062;2023-05-10T03:06:08;0.20;;;0.20;;
39340;SDS011;25059;52.132;21.062;2023-05-10T03:08:53;0.20;;;0.20;;
39340;SDS011;25059;52.132;21.062;2023-05-10T03:17:59;0.20;;;0.20;;
39340;SDS011;25059;52.132;21.062;2023-05-10T03:20:48;0.20;;;0.20;;
39340;SDS011;25059;52.132;21.062;2023-05-10T03:23:36;0.20;;;0.20;;
39340;SDS011;25059;52.132;21.062;2023-05-10T03:26:28;0.20;;;0.20;;
39340;SDS011;25059;52.132;21.062;2023-05-10T03:29:13;0.20;;;0.20;;
39340;SDS011;25059;52.132;21.062;2023-05-10T03:31:59;0.20;;;0.20;;
39340;SDS011;25059;52.132;21.062;2023-05-10T03:34:45;0.20;;;0.20;;
39340;SDS011;25059;52.132;21.062;2023-05-10T03:37:29;0.20;;;0.20;;
39340;SDS011;25059;52.132;21.062;2023-05-10T03:40:13;0.20;;;0.20;;
39340;SDS011;25059;52.132;21.062;2023-05-10T03:42:59;0.10;;;0.10;;
39340;SDS011;25059;52.132;21.062;2023-05-10T03:45:43;0.20;;;0.20;;
39340;SDS011;25059;52.132;21.062;2023-05-10T03:48:28;0.20;;;0.20;;
39340;SDS011;25059;52.132;21.062;2023-05-10T03:51:13;0.20;;;0.20;;
39340;SDS011;25059;52.132;21.062;2023-05-10T03:53:57;0.20;;;0.20;;
39340;SDS011;25059;52.132;21.062;2023-05-10T03:56:42;0.20;;;0.20;;
39340;SDS011;25059;52.132;21.062;2023-05-10T03:59:26;0.15;;;0.15;;
39340;SDS011;25059;52.132;21.062;2023-05-10T04:02:11;0.20;;;0.20;;
39340;SDS011;25059;52.132;21.062;2023-05-10T04:04:56;0.20;;;0.20;;
39340;SDS011;25059;52.132;21.062;2023-05-10T04:07:41;0.20;;;0.20;;
39340;SDS011;25059;52.132;21.062;2023-05-10T04:10:25;0.10;;;0.10;;
39340;SDS011;25059;52.132;21.062;2023-05-10T04:13:10;0.20;;;0.20;;
39340;SDS011;25059;52.132;21.062;2023-05-10T04:15:55;0.20;;;0.20;;
39340;SDS011;25059;52.132;21.062;2023-05-10T04:18:39;0.20;;;0.20;;
39340;SDS011;25059;52.132;21.062;2023-05-10T04:21:24;0.20;;;0.20;;
39340;SDS011;25059;52.132;21.062;2023-05-10T04:24:08;0.20;;;0.20;;
39340;SDS011;25059;52.132;21.062;2023-05-10T04:26:53;0.20;;;0.20;;
39340;SDS011;25059;52.132;21.062;2023-05-10T04:29:39;0.20;;;0.20;;
39340;SDS011;25059;52.132;21.062;2023-05-10T04:32:23;0.20;;;0.20;;
39340;SDS011;25059;52.132;21.062;2023-05-10T04:35:08;0.20;;;0.20;;
39340;SDS011;25059;52.132;21.062;2023-05-10T04:37:54;0.20;;;0.20;;
39340;SDS011;25059;52.132;21.062;2023-05-10T04:40:39;0.20;;;0.20;;
39340;SDS011;25059;52.132;21.062;2023-05-10T04:43:23;0.20;;;0.20;;
39340;SDS011;25059;52.132;21.062;2023-05-10T04:46:08;0.22;;;0.20;;
39340;SDS011;25059;52.132;21.062;2023-05-10T04:48:52;0.20;;;0.20;;
39340;SDS011;25059;52.132;21.062;2023-05-10T04:51:37;0.20;;;0.20;;
39340;SDS011;25059;52.132;21.062;2023-05-10T04:54:21;0.20;;;0.20;;
39340;SDS011;25059;52.132;21.062;2023-05-10T04:57:06;0.20;;;0.20;;
39340;SDS011;25059;52.132;21.062;2023-05-10T04:59:50;0.20;;;0.20;;
39340;SDS011;25059;52.132;21.062;2023-05-10T05:02:36;0.10;;;0.10;;
39340;SDS011;25059;52.132;21.062;2023-05-10T05:05:20;0.10;;;0.10;;
39340;SDS011;25059;52.132;21.062;2023-05-10T05:08:05;0.20;;;0.20;;
39340;SDS011;25059;52.132;21.062;2023-05-10T05:10:50;0.10;;;0.10;;
39340;SDS011;25059;52.132;21.062;2023-05-10T05:13:34;0.10;;;0.10;;
39340;SDS011;25059;52.132;21.062;2023-05-10T05:16:19;0.10;;;0.10;;
39340;SDS011;25059;52.132;21.062;2023-05-10T05:19:03;0.10;;;0.10;;
39340;SDS011;25059;52.132;21.062;2023-05-10T05:21:48;0.10;;;0.10;;
39340;SDS011;25059;52.132;21.062;2023-05-10T05:24:34;0.15;;;0.15;;
39340;SDS011;25059;52.132;21.062;2023-05-10T05:27:20;0.10;;;0.10;;
39340;SDS011;25059;52.132;21.062;2023-05-10T05:30:08;0.10;;;0.10;;
39340;SDS011;25059;52.132;21.062;2023-05-10T05:32:53;0.10;;;0.10;;
39340;SDS011;25059;52.132;21.062;2023-05-10T05:35:41;0.20;;;0.20;;
39340;SDS011;25059;52.132;21.062;2023-05-10T05:38:31;0.10;;;0.10;;
39340;SDS011;25059;52.132;21.062;2023-05-10T05:41:16;0.20;;;0.20;;
39340;SDS011;25059;52.132;21.062;2023-05-10T05:44:01;0.10;;;0.10;;
39340;SDS011;25059;52.132;21.062;2023-05-10T05:46:45;0.10;;;0.10;;
39340;SDS011;25059;52.132;21.062;2023-05-10T05:49:30;0.10;;;0.10;;
39340;SDS011;25059;52.132;21.062;2023-05-10T05:52:15;0.10;;;0.10;;
39340;SDS011;25059;52.132;21.062;2023-05-10T05:54:59;0.17;;;0.17;;
39340;SDS011;25059;52.132;21.062;2023-05-10T05:57:44;0.20;;;0.20;;
39340;SDS011;25059;52.132;21.062;2023-05-10T06:03:40;0.10;;;0.10;;
39340;SDS011;25059;52.132;21.062;2023-05-10T06:06:25;0.13;;;0.13;;
39340;SDS011;25059;52.132;21.062;2023-05-10T06:09:11;0.10;;;0.10;;
39340;SDS011;25059;52.132;21.062;2023-05-10T06:11:58;0.13;;;0.13;;
39340;SDS011;25059;52.132;21.062;2023-05-10T06:14:48;0.10;;;0.10;;
39340;SDS011;25059;52.132;21.062;2023-05-10T06:17:34;0.10;;;0.10;;
39340;SDS011;25059;52.132;21.062;2023-05-10T06:29:23;0.10;;;0.10;;
39340;SDS011;25059;52.132;21.062;2023-05-10T06:32:43;0.10;;;0.10;;
39340;SDS011;25059;52.132;21.062;2023-05-10T06:35:50;0.10;;;0.10;;
39340;SDS011;25059;52.132;21.062;2023-05-10T06:43:06;0.20;;;0.20;;
39340;SDS011;25059;52.132;21.062;2023-05-10T06:46:17;0.10;;;0.10;;
39340;SDS011;25059;52.132;21.062;2023-05-10T06:53:05;0.10;;;0.10;;
39340;SDS011;25059;52.132;21.062;2023-05-10T06:56:26;0.10;;;0.10;;
39340;SDS011;25059;52.132;21.062;2023-05-10T07:04:02;0.20;;;0.20;;
39340;SDS011;25059;52.132;21.062;2023-05-10T07:10:50;0.10;;;0.10;;
39340;SDS011;25059;52.132;21.062;2023-05-10T07:13:47;0.20;;;0.20;;
39340;SDS011;25059;52.132;21.062;2023-05-10T07:17:13;0.10;;;0.10;;
39340;SDS011;25059;52.132;21.062;2023-05-10T07:20:25;0.10;;;0.10;;
39340;SDS011;25059;52.132;21.062;2023-05-10T07:23:14;0.20;;;0.20;;
39340;SDS011;25059;52.132;21.062;2023-05-10T07:26:05;0.13;;;0.13;;
39340;SDS011;25059;52.132;21.062;2023-05-10T07:28:59;0.10;;;0.10;;
39340;SDS011;25059;52.132;21.062;2023-05-10T07:31:48;0.10;;;0.10;;
39340;SDS011;25059;52.132;21.062;2023-05-10T07:35:03;0.10;;;0.10;;
39340;SDS011;25059;52.132;21.062;2023-05-10T07:37:59;0.10;;;0.10;;
39340;SDS011;25059;52.132;21.062;2023-05-10T07:40:48;0.20;;;0.20;;
39340;SDS011;25059;52.132;21.062;2023-05-10T07:43:37;0.10;;;0.10;;
39340;SDS011;25059;52.132;21.062;2023-05-10T07:46:23;0.10;;;0.10;;
39340;SDS011;25059;52.132;21.062;2023-05-10T07:49:10;0.10;;;0.10;;
39340;SDS011;25059;52.132;21.062;2023-05-10T07:51:56;0.10;;;0.10;;
39340;SDS011;25059;52.132;21.062;2023-05-10T07:54:48;0.10;;;0.10;;
39340;SDS011;25059;52.132;21.062;2023-05-10T08:22:13;0.10;;;0.10;;
39340;SDS011;25059;52.132;21.062;2023-05-10T08:29:29;0.10;;;0.10;;
39340;SDS011;25059;52.132;21.062;2023-05-10T08:32:39;0.10;;;0.10;;
39340;SDS011;25059;52.132;21.062;2023-05-10T08:44:54;0.10;;;0.10;;
39340;SDS011;25059;52.132;21.062;2023-05-10T09:38:44;0.10;;;0.10;;
39340;SDS011;25059;52.132;21.062;2023-05-10T10:03:31;0.10;;;0.10;;
39340;SDS011;25059;52.132;21.062;2023-05-10T10:06:28;0.10;;;0.10;;
39340;SDS011;25059;52.132;21.062;2023-05-10T10:12:39;0.10;;;0.10;;
39340;SDS011;25059;52.132;21.062;2023-05-10T10:19:11;0.10;;;0.10;;
39340;SDS011;25059;52.132;21.062;2023-05-10T10:26:54;0.10;;;0.10;;
39340;SDS011;25059;52.132;21.062;2023-05-10T10:30:46;0.10;;;0.10;;
39340;SDS011;25059;52.132;21.062;2023-05-10T10:34:00;0.10;;;0.10;;
39340;SDS011;25059;52.132;21.062;2023-05-10T10:37:41;0.20;;;0.20;;
39340;SDS011;25059;52.132;21.062;2023-05-10T10:45:11;0.20;;;0.20;;
39340;SDS011;25059;52.132;21.062;2023-05-10T11:17:58;0.30;;;0.30;;
39340;SDS011;25059;52.132;21.062;2023-05-10T11:21:13;0.30;;;0.30;;
39340;SDS011;25059;52.132;21.062;2023-05-10T11:24:16;0.20;;;0.20;;
39340;SDS011;25059;52.132;21.062;2023-05-10T11:28:24;0.30;;;0.30;;
39340;SDS011;25059;52.132;21.062;2023-05-10T11:31:20;0.40;;;0.40;;
39340;SDS011;25059;52.132;21.062;2023-05-10T11:46:27;0.50;;;0.50;;
39340;SDS011;25059;52.132;21.062;2023-05-10T11:49:30;0.55;;;0.55;;
39340;SDS011;25059;52.132;21.062;2023-05-10T11:56:39;0.40;;;0.40;;
39340;SDS011;25059;52.132;21.062;2023-05-10T11:59:30;0.40;;;0.40;;
39340;SDS011;25059;52.132;21.062;2023-05-10T12:02:33;0.30;;;0.30;;
39340;SDS011;25059;52.132;21.062;2023-05-10T12:09:43;0.30;;;0.30;;
39340;SDS011;25059;52.132;21.062;2023-05-10T12:31:15;0.40;;;0.40;;
39340;SDS011;25059;52.132;21.062;2023-05-10T13:16:19;0.40;;;0.40;;
39340;SDS011;25059;52.132;21.062;2023-05-10T13:23:13;0.30;;;0.30;;
39340;SDS011;25059;52.132;21.062;2023-05-10T13:29:53;0.35;;;0.35;;
39340;SDS011;25059;52.132;21.062;2023-05-10T13:44:44;0.43;;;0.43;;
39340;SDS011;25059;52.132;21.062;2023-05-10T13:50:45;0.43;;;0.43;;
39340;SDS011;25059;52.132;21.062;2023-05-10T13:53:38;0.40;;;0.40;;
39340;SDS011;25059;52.132;21.062;2023-05-10T13:56:29;0.43;;;0.43;;
39340;SDS011;25059;52.132;21.062;2023-05-10T13:59:16;0.50;;;0.50;;
39340;SDS011;25059;52.132;21.062;2023-05-10T14:02:19;0.40;;;0.40;;
39340;SDS011;25059;52.132;21.062;2023-05-10T14:05:16;0.40;;;0.40;;
39340;SDS011;25059;52.132;21.062;2023-05-10T14:08:01;0.55;;;0.55;;
39340;SDS011;25059;52.132;21.062;2023-05-10T14:10:45;0.50;;;0.50;;
39340;SDS011;25059;52.132;21.062;2023-05-10T14:13:33;0.40;;;0.40;;
39340;SDS011;25059;52.132;21.062;2023-05-10T14:16:26;0.65;;;0.65;;
39340;SDS011;25059;52.132;21.062;2023-05-10T14:22:17;0.50;;;0.50;;
39340;SDS011;25059;52.132;21.062;2023-05-10T14:25:04;0.40;;;0.40;;
39340;SDS011;25059;52.132;21.062;2023-05-10T14:28:00;0.50;;;0.50;;
39340;SDS011;25059;52.132;21.062;2023-05-10T14:30:48;0.60;;;0.60;;
39340;SDS011;25059;52.132;21.062;2023-05-10T14:33:34;0.43;;;0.43;;
39340;SDS011;25059;52.132;21.062;2023-05-10T14:36:21;0.50;;;0.50;;
39340;SDS011;25059;52.132;21.062;2023-05-10T14:39:15;0.35;;;0.35;;
39340;SDS011;25059;52.132;21.062;2023-05-10T14:42:00;0.40;;;0.40;;
39340;SDS011;25059;52.132;21.062;2023-05-10T14:44:45;0.40;;;0.40;;
39340;SDS011;25059;52.132;21.062;2023-05-10T14:50:58;0.45;;;0.45;;
39340;SDS011;25059;52.132;21.062;2023-05-10T14:53:43;0.50;;;0.50;;
39340;SDS011;25059;52.132;21.062;2023-05-10T14:56:27;0.50;;;0.50;;
39340;SDS011;25059;52.132;21.062;2023-05-10T14:59:12;0.63;;;0.63;;
39340;SDS011;25059;52.132;21.062;2023-05-10T15:01:57;0.70;;;0.70;;
39340;SDS011;25059;52.132;21.062;2023-05-10T15:04:42;0.60;;;0.60;;
39340;SDS011;25059;52.132;21.062;2023-05-10T15:07:26;0.60;;;0.60;;
39340;SDS011;25059;52.132;21.062;2023-05-10T15:10:11;0.60;;;0.60;;
39340;SDS011;25059;52.132;21.062;2023-05-10T15:12:55;0.60;;;0.60;;
39340;SDS011;25059;52.132;21.062;2023-05-10T15:15:40;0.68;;;0.68;;
39340;SDS011;25059;52.132;21.062;2023-05-10T15:18:26;0.50;;;0.50;;
39340;SDS011;25059;52.132;21.062;2023-05-10T15:21:14;0.70;;;0.70;;
39340;SDS011;25059;52.132;21.062;2023-05-10T15:23:58;0.68;;;0.68;;
39340;SDS011;25059;52.132;21.062;2023-05-10T15:26:46;0.45;;;0.45;;
39340;SDS011;25059;52.132;21.062;2023-05-10T15:29:31;0.60;;;0.60;;
39340;SDS011;25059;52.132;21.062;2023-05-10T15:32:18;0.60;;;0.60;;
39340;SDS011;25059;52.132;21.062;2023-05-10T15:35:03;0.70;;;0.70;;
39340;SDS011;25059;52.132;21.062;2023-05-10T15:37:48;0.70;;;0.70;;
39340;SDS011;25059;52.132;21.062;2023-05-10T15:40:33;0.70;;;0.70;;
39340;SDS011;25059;52.132;21.062;2023-05-10T15:43:18;0.43;;;0.43;;
39340;SDS011;25059;52.132;21.062;2023-05-10T15:46:03;0.60;;;0.60;;
39340;SDS011;25059;52.132;21.062;2023-05-10T15:48:49;0.50;;;0.50;;
39340;SDS011;25059;52.132;21.062;2023-05-10T15:51:34;0.50;;;0.50;;
39340;SDS011;25059;52.132;21.062;2023-05-10T15:54:18;0.50;;;0.50;;
39340;SDS011;25059;52.132;21.062;2023-05-10T15:57:03;0.70;;;0.70;;
39340;SDS011;25059;52.132;21.062;2023-05-10T15:59:47;0.70;;;0.70;;
39340;SDS011;25059;52.132;21.062;2023-05-10T16:02:33;0.70;;;0.70;;
39340;SDS011;25059;52.132;21.062;2023-05-10T16:05:17;0.50;;;0.50;;
39340;SDS011;25059;52.132;21.062;2023-05-10T16:08:02;0.70;;;0.70;;
39340;SDS011;25059;52.132;21.062;2023-05-10T16:10:47;0.50;;;0.50;;
39340;SDS011;25059;52.132;21.062;2023-05-10T16:13:33;0.50;;;0.50;;
39340;SDS011;25059;52.132;21.062;2023-05-10T16:16:18;0.45;;;0.45;;
39340;SDS011;25059;52.132;21.062;2023-05-10T16:19:02;0.40;;;0.40;;
39340;SDS011;25059;52.132;21.062;2023-05-10T16:21:47;0.50;;;0.50;;
39340;SDS011;25059;52.132;21.062;2023-05-10T16:24:31;0.35;;;0.35;;
39340;SDS011;25059;52.132;21.062;2023-05-10T16:27:16;0.35;;;0.35;;
39340;SDS011;25059;52.132;21.062;2023-05-10T16:30:01;0.38;;;0.38;;
39340;SDS011;25059;52.132;21.062;2023-05-10T16:32:46;0.30;;;0.30;;
39340;SDS011;25059;52.132;21.062;2023-05-10T16:35:31;0.40;;;0.40;;
39340;SDS011;25059;52.132;21.062;2023-05-10T16:38:15;0.32;;;0.32;;
39340;SDS011;25059;52.132;21.062;2023-05-10T16:41:00;0.45;;;0.45;;
39340;SDS011;25059;52.132;21.062;2023-05-10T16:43:46;0.30;;;0.30;;
39340;SDS011;25059;52.132;21.062;2023-05-10T16:46:31;0.38;;;0.38;;
39340;SDS011;25059;52.132;21.062;2023-05-10T16:49:16;0.22;;;0.22;;
39340;SDS011;25059;52.132;21.062;2023-05-10T16:52:01;0.30;;;0.30;;
39340;SDS011;25059;52.132;21.062;2023-05-10T16:54:46;0.20;;;0.20;;
39340;SDS011;25059;52.132;21.062;2023-05-10T16:57:30;0.20;;;0.20;;
39340;SDS011;25059;52.132;21.062;2023-05-10T17:00:16;0.20;;;0.20;;
39340;SDS011;25059;52.132;21.062;2023-05-10T17:03:01;0.20;;;0.20;;
39340;SDS011;25059;52.132;21.062;2023-05-10T17:05:45;0.20;;;0.20;;
39340;SDS011;25059;52.132;21.062;2023-05-10T17:08:30;0.13;;;0.13;;
39340;SDS011;25059;52.132;21.062;2023-05-10T17:11:14;0.13;;;0.13;;
39340;SDS011;25059;52.132;21.062;2023-05-10T17:13:59;0.10;;;0.10;;
39340;SDS011;25059;52.132;21.062;2023-05-10T17:16:44;0.10;;;0.10;;
39340;SDS011;25059;52.132;21.062;2023-05-10T17:19:31;0.10;;;0.10;;
39340;SDS011;25059;52.132;21.062;2023-05-10T17:22:16;0.03;;;0.03;;
39340;SDS011;25059;52.132;21.062;2023-05-10T17:25:00;0.10;;;0.10;;
39340;SDS011;25059;52.132;21.062;2023-05-10T17:27:45;0.10;;;0.10;;
39340;SDS011;25059;52.132;21.062;2023-05-10T17:30:30;0.10;;;0.10;;
39340;SDS011;25059;52.132;21.062;2023-05-10T17:33:15;0.10;;;0.10;;
39340;SDS011;25059;52.132;21.062;2023-05-10T17:35:59;0.10;;;0.10;;
39340;SDS011;25059;52.132;21.062;2023-05-10T17:38:44;0.10;;;0.10;;
39340;SDS011;25059;52.132;21.062;2023-05-10T17:41:28;0.10;;;0.10;;
39340;SDS011;25059;52.132;21.062;2023-05-10T17:44:13;0.10;;;0.10;;
39340;SDS011;25059;52.132;21.062;2023-05-10T17:46:58;0.10;;;0.10;;
39340;SDS011;25059;52.132;21.062;2023-05-10T17:49:43;0.10;;;0.10;;
39340;SDS011;25059;52.132;21.062;2023-05-10T17:52:27;0.10;;;0.10;;
39340;SDS011;25059;52.132;21.062;2023-05-10T17:55:12;0.10;;;0.10;;
39340;SDS011;25059;52.132;21.062;2023-05-10T17:57:57;0.10;;;0.10;;
39340;SDS011;25059;52.132;21.062;2023-05-10T18:00:42;0.10;;;0.10;;
39340;SDS011;25059;52.132;21.062;2023-05-10T18:03:27;0.15;;;0.15;;
39340;SDS011;25059;52.132;21.062;2023-05-10T18:06:12;0.10;;;0.10;;
39340;SDS011;25059;52.132;21.062;2023-05-10T18:08:57;0.10;;;0.10;;
39340;SDS011;25059;52.132;21.062;2023-05-10T18:11:41;0.20;;;0.20;;
39340;SDS011;25059;52.132;21.062;2023-05-10T18:14:26;0.10;;;0.10;;
39340;SDS011;25059;52.132;21.062;2023-05-10T18:17:11;0.10;;;0.10;;
39340;SDS011;25059;52.132;21.062;2023-05-10T18:19:56;0.10;;;0.10;;
39340;SDS011;25059;52.132;21.062;2023-05-10T18:22:40;0.10;;;0.10;;
39340;SDS011;25059;52.132;21.062;2023-05-10T18:25:25;0.20;;;0.20;;
39340;SDS011;25059;52.132;21.062;2023-05-10T18:28:10;0.13;;;0.13;;
39340;SDS011;25059;52.132;21.062;2023-05-10T18:30:55;0.20;;;0.20;;
39340;SDS011;25059;52.132;21.062;2023-05-10T18:33:39;0.10;;;0.10;;
39340;SDS011;25059;52.132;21.062;2023-05-10T18:36:24;0.20;;;0.20;;
39340;SDS011;25059;52.132;21.062;2023-05-10T18:39:09;0.10;;;0.10;;
39340;SDS011;25059;52.132;21.062;2023-05-10T18:41:55;0.20;;;0.20;;
39340;SDS011;25059;52.132;21.062;2023-05-10T18:44:39;0.10;;;0.10;;
39340;SDS011;25059;52.132;21.062;2023-05-10T18:47:24;0.10;;;0.10;;
39340;SDS011;25059;52.132;21.062;2023-05-10T18:50:09;0.10;;;0.10;;
39340;SDS011;25059;52.132;21.062;2023-05-10T18:52:55;0.20;;;0.20;;
39340;SDS011;25059;52.132;21.062;2023-05-10T18:55:39;0.10;;;0.10;;
39340;SDS011;25059;52.132;21.062;2023-05-10T18:58:25;0.10;;;0.10;;
39340;SDS011;25059;52.132;21.062;2023-05-10T19:01:11;0.15;;;0.15;;
39340;SDS011;25059;52.132;21.062;2023-05-10T19:03:55;0.20;;;0.20;;
39340;SDS011;25059;52.132;21.062;2023-05-10T19:06:39;0.20;;;0.20;;
39340;SDS011;25059;52.132;21.062;2023-05-10T19:09:25;0.20;;;0.20;;
39340;SDS011;25059;52.132;21.062;2023-05-10T19:12:09;0.10;;;0.10;;
39340;SDS011;25059;52.132;21.062;2023-05-10T19:14:54;0.20;;;0.20;;
39340;SDS011;25059;52.132;21.062;2023-05-10T19:17:38;0.20;;;0.20;;
39340;SDS011;25059;52.132;21.062;2023-05-10T19:20:24;0.20;;;0.20;;
39340;SDS011;25059;52.132;21.062;2023-05-10T19:23:08;0.10;;;0.10;;
39340;SDS011;25059;52.132;21.062;2023-05-10T19:26:11;0.20;;;0.20;;
39340;SDS011;25059;52.132;21.062;2023-05-10T19:28:56;0.20;;;0.20;;
39340;SDS011;25059;52.132;21.062;2023-05-10T19:31:50;0.20;;;0.20;;
39340;SDS011;25059;52.132;21.062;2023-05-10T19:34:54;0.20;;;0.20;;
39340;SDS011;25059;52.132;21.062;2023-05-10T19:41:43;0.15;;;0.15;;
39340;SDS011;25059;52.132;21.062;2023-05-10T19:45:08;0.20;;;0.20;;
39340;SDS011;25059;52.132;21.062;2023-05-10T19:47:53;0.10;;;0.10;;
39340;SDS011;25059;52.132;21.062;2023-05-10T19:50:38;0.20;;;0.20;;
39340;SDS011;25059;52.132;21.062;2023-05-10T19:53:22;0.20;;;0.20;;
39340;SDS011;25059;52.132;21.062;2023-05-10T19:56:07;0.10;;;0.10;;
39340;SDS011;25059;52.132;21.062;2023-05-10T19:58:52;0.20;;;0.20;;
39340;SDS011;25059;52.132;21.062;2023-05-10T20:01:36;0.20;;;0.20;;
39340;SDS011;25059;52.132;21.062;2023-05-10T20:04:21;0.15;;;0.15;;
39340;SDS011;25059;52.132;21.062;2023-05-10T20:07:05;0.20;;;0.20;;
39340;SDS011;25059;52.132;21.062;2023-05-10T20:09:50;0.17;;;0.17;;
39340;SDS011;25059;52.132;21.062;2023-05-10T20:12:34;0.20;;;0.20;;
39340;SDS011;25059;52.132;21.062;2023-05-10T20:15:20;0.20;;;0.20;;
39340;SDS011;25059;52.132;21.062;2023-05-10T20:18:06;0.20;;;0.20;;
39340;SDS011;25059;52.132;21.062;2023-05-10T20:20:52;0.20;;;0.20;;
39340;SDS011;25059;52.132;21.062;2023-05-10T20:23:38;0.15;;;0.15;;
39340;SDS011;25059;52.132;21.062;2023-05-10T20:26:22;0.20;;;0.20;;
39340;SDS011;25059;52.132;21.062;2023-05-10T20:29:07;0.20;;;0.20;;
39340;SDS011;25059;52.132;21.062;2023-05-10T20:31:52;0.10;;;0.10;;
39340;SDS011;25059;52.132;21.062;2023-05-10T20:34:37;0.10;;;0.10;;
39340;SDS011;25059;52.132;21.062;2023-05-10T20:37:21;0.10;;;0.10;;
39340;SDS011;25059;52.132;21.062;2023-05-10T20:40:06;0.20;;;0.20;;
39340;SDS011;25059;52.132;21.062;2023-05-10T20:42:51;0.20;;;0.20;;
39340;SDS011;25059;52.132;21.062;2023-05-10T20:45:36;0.20;;;0.20;;
39340;SDS011;25059;52.132;21.062;2023-05-10T20:48:21;0.10;;;0.10;;
39340;SDS011;25059;52.132;21.062;2023-05-10T20:51:05;0.15;;;0.15;;
39340;SDS011;25059;52.132;21.062;2023-05-10T20:53:50;0.17;;;0.17;;
39340;SDS011;25059;52.132;21.062;2023-05-10T20:56:34;0.20;;;0.20;;
39340;SDS011;25059;52.132;21.062;2023-05-10T20:59:19;0.20;;;0.20;;
39340;SDS011;25059;52.132;21.062;2023-05-10T21:02:04;0.20;;;0.20;;
39340;SDS011;25059;52.132;21.062;2023-05-10T21:04:50;0.15;;;0.15;;
39340;SDS011;25059;52.132;21.062;2023-05-10T21:07:34;0.20;;;0.20;;
39340;SDS011;25059;52.132;21.062;2023-05-10T21:10:19;0.10;;;0.10;;
39340;SDS011;25059;52.132;21.062;2023-05-10T21:13:27;0.20;;;0.20;;
39340;SDS011;25059;52.132;21.062;2023-05-10T21:16:16;0.15;;;0.15;;
39340;SDS011;25059;52.132;21.062;2023-05-10T21:19:04;0.10;;;0.10;;
39340;SDS011;25059;52.132;21.062;2023-05-10T21:21:56;0.10;;;0.10;;
39340;SDS011;25059;52.132;21.062;2023-05-10T21:24:42;0.10;;;0.10;;
39340;SDS011;25059;52.132;21.062;2023-05-10T21:27:32;0.20;;;0.20;;
39340;SDS011;25059;52.132;21.062;2023-05-10T21:30:17;0.10;;;0.10;;
39340;SDS011;25059;52.132;21.062;2023-05-10T21:33:02;0.20;;;0.20;;
39340;SDS011;25059;52.132;21.062;2023-05-10T21:35:47;0.20;;;0.20;;
39340;SDS011;25059;52.132;21.062;2023-05-10T21:38:31;0.20;;;0.20;;
39340;SDS011;25059;52.132;21.062;2023-05-10T21:41:28;0.13;;;0.13;;
39340;SDS011;25059;52.132;21.062;2023-05-10T21:44:13;0.17;;;0.17;;
39340;SDS011;25059;52.132;21.062;2023-05-10T21:46:57;0.10;;;0.10;;
39340;SDS011;25059;52.132;21.062;2023-05-10T21:49:42;0.20;;;0.20;;
39340;SDS011;25059;52.132;21.062;2023-05-10T21:52:27;0.13;;;0.13;;
39340;SDS011;25059;52.132;21.062;2023-05-10T21:55:12;0.20;;;0.20;;
39340;SDS011;25059;52.132;21.062;2023-05-10T21:57:57;0.10;;;0.10;;
39340;SDS011;25059;52.132;21.062;2023-05-10T22:00:41;0.20;;;0.20;;
39340;SDS011;25059;52.132;21.062;2023-05-10T22:03:26;0.20;;;0.20;;